M._banatov — UABI — position and weather

sailwx.info

Track history (hours):
 
Tides and Currents Weather Stations Pressure Air Temp Water Temp Dewpoint Dewpoint Depression Visibility Wind Speed Wind Dir Waves Ship Positions

M._banatov

Last reported at 2016-Jul-22 09:05 UTC. Time now 2016-Jul-29 10:13 UTC.
Position N 45°33' E 036°48'.

Length 132 m; draft 3.4 m.

Type: Ship. MMSI: 273272100.

Date/timePositionNaut miles runAvg speedWind from/ knotsBaromVisibWave heightAir tempDewpointWater temp
2016-Jul-22 09:05N 45°33' E 036°48'2 4.0
2016-Jul-22 08:31N 45°31' E 036°46'1 0.7
2016-Jul-22 07:33N 45°30' E 036°46'14 7.0
2016-Jul-22 05:34N 45°19' E 036°34'6 5.8
2016-Jul-22 04:33N 45°15' E 036°28'7 7.2
2016-Jul-22 03:33N 45°09' E 036°32'3 0.3
2016-Jul-21 17:07N 45°07' E 036°35'7 4.2
2016-Jul-21 15:33N 45°12' E 036°28'7 7.0
2016-Jul-21 14:33N 45°18' E 036°30'6 6.2
2016-Jul-21 13:34N 45°20' E 036°38'6 6.1
2016-Jul-21 12:33N 45°26' E 036°42'  
Track history (hours):
 
Tides and Currents Weather Stations Pressure Air Temp Water Temp Dewpoint Dewpoint Depression Visibility Wind Speed Wind Dir Waves Ship Positions

M._banatov

Last reported at 2016-Jul-22 09:05 UTC. Time now 2016-Jul-29 10:13 UTC.
Position N 45°33' E 036°48'.

Length 132 m; draft 3.4 m.

Type: Ship. MMSI: 273272100.

Date/timePositionNaut miles runAvg speedWind from/ knotsBaromVisibWave heightAir tempDewpointWater temp
2016-Jul-22 09:05N 45°33' E 036°48'2 4.0
2016-Jul-22 08:31N 45°31' E 036°46'1 0.7
2016-Jul-22 07:33N 45°30' E 036°46'14 7.0
2016-Jul-22 05:34N 45°19' E 036°34'6 5.8
2016-Jul-22 04:33N 45°15' E 036°28'7 7.2
2016-Jul-22 03:33N 45°09' E 036°32'3 0.3
2016-Jul-21 17:07N 45°07' E 036°35'7 4.2
2016-Jul-21 15:33N 45°12' E 036°28'7 7.0
2016-Jul-21 14:33N 45°18' E 036°30'6 6.2
2016-Jul-21 13:34N 45°20' E 036°38'6 6.1
2016-Jul-21 12:33N 45°26' E 036°42'  

Dump ship's entire track history